createdAt,value
2022-09-15T00:00:26.091Z,19.50
2022-09-15T00:01:29.388Z,19.45
2022-09-15T00:02:32.463Z,19.44
2022-09-15T00:03:39.321Z,19.44
2022-09-15T00:04:42.256Z,19.47
2022-09-15T00:05:45.806Z,19.53
2022-09-15T00:06:48.664Z,19.50
2022-09-15T00:07:51.862Z,19.46
2022-09-15T00:08:55.235Z,19.38
2022-09-15T00:09:58.182Z,19.38
2022-09-15T00:11:19.744Z,19.33
2022-09-15T00:12:22.975Z,19.35
2022-09-15T00:13:26.663Z,19.33
2022-09-15T00:14:29.845Z,19.25
2022-09-15T00:15:32.796Z,19.25
2022-09-15T00:16:36.361Z,19.19
2022-09-15T00:17:43.390Z,19.20
2022-09-15T00:18:47.273Z,19.26
2022-09-15T00:19:50.369Z,19.23
2022-09-15T00:20:53.392Z,19.16
2022-09-15T00:21:56.529Z,19.13
2022-09-15T00:22:59.676Z,19.09
2022-09-15T00:24:03.047Z,19.13
2022-09-15T00:25:06.547Z,19.10
2022-09-15T00:26:15.315Z,19.04
2022-09-15T00:27:18.074Z,19.00
2022-09-15T00:28:23.145Z,18.99
2022-09-15T00:29:26.068Z,18.98
2022-09-15T00:30:29.009Z,18.95
2022-09-15T00:31:33.616Z,18.95
2022-09-15T00:32:38.268Z,18.98
2022-09-15T00:33:48.151Z,19.05
2022-09-15T00:34:51.652Z,19.08
2022-09-15T00:35:54.885Z,19.10
2022-09-15T00:36:57.838Z,19.12
2022-09-15T00:38:00.880Z,19.12
2022-09-15T00:39:06.276Z,19.11
2022-09-15T00:40:09.664Z,19.05
2022-09-15T00:41:19.176Z,18.99
2022-09-15T00:42:24.306Z,18.96
2022-09-15T00:43:50.649Z,18.93
2022-09-15T00:45:02.317Z,18.88
2022-09-15T00:46:10.322Z,18.88
2022-09-15T00:47:19.675Z,18.87
2022-09-15T00:48:27.190Z,18.85
2022-09-15T00:49:34.608Z,18.77
2022-09-15T00:50:42.181Z,18.71
2022-09-15T00:51:55.057Z,18.67
2022-09-15T00:53:02.041Z,18.63
2022-09-15T00:54:17.811Z,18.63
2022-09-15T00:55:53.177Z,18.61
2022-09-15T00:57:01.555Z,18.60
2022-09-15T00:58:08.240Z,18.67
2022-09-15T01:00:40.268Z,18.70
2022-09-15T01:01:45.027Z,18.65
2022-09-15T01:02:49.511Z,18.58
2022-09-15T01:03:54.165Z,18.54
2022-09-15T01:05:00.293Z,18.54
2022-09-15T01:06:15.829Z,18.54
2022-09-15T01:07:26.582Z,18.51
2022-09-15T01:08:36.727Z,18.49
2022-09-15T01:10:00.429Z,18.47
2022-09-15T01:11:03.369Z,18.46
2022-09-15T01:12:06.766Z,18.48
2022-09-15T01:13:13.006Z,18.50
2022-09-15T01:14:16.205Z,18.49
2022-09-15T01:15:21.242Z,18.46
2022-09-15T01:18:27.330Z,18.43
2022-09-15T01:19:51.720Z,18.39
2022-09-15T01:21:00.996Z,18.37
2022-09-15T01:22:41.041Z,18.45
2022-09-15T01:24:02.433Z,18.38
2022-09-15T01:25:39.278Z,18.35
2022-09-15T01:27:37.778Z,18.36
2022-09-15T01:28:44.774Z,18.31
2022-09-15T01:29:59.951Z,18.31
2022-09-15T01:31:30.086Z,18.28
2022-09-15T01:33:20.202Z,18.28
2022-09-15T01:34:26.825Z,18.24
2022-09-15T01:35:44.780Z,18.19
2022-09-15T01:36:59.717Z,18.15
2022-09-15T01:38:12.099Z,18.13
2022-09-15T01:39:30.535Z,18.14
2022-09-15T01:40:45.540Z,18.12
2022-09-15T01:41:55.326Z,18.13
2022-09-15T01:43:02.448Z,18.11
2022-09-15T01:44:20.305Z,18.07
2022-09-15T01:45:30.814Z,18.05
2022-09-15T01:46:40.625Z,18.07
2022-09-15T01:47:48.461Z,18.02
2022-09-15T01:48:54.134Z,18.04
2022-09-15T01:50:02.992Z,18.01
2022-09-15T01:51:07.342Z,18.00
2022-09-15T01:52:10.614Z,18.06
2022-09-15T01:53:18.409Z,18.00
2022-09-15T01:54:27.803Z,17.96
2022-09-15T01:55:38.995Z,17.94
2022-09-15T01:56:42.431Z,17.96
2022-09-15T01:57:45.710Z,18.03
2022-09-15T01:58:51.330Z,17.99
2022-09-15T01:59:56.533Z,17.99
2022-09-15T02:01:06.436Z,17.96
2022-09-15T02:02:16.059Z,17.94
2022-09-15T02:04:02.847Z,17.92
2022-09-15T02:05:16.859Z,17.92
2022-09-15T02:06:36.434Z,17.97
2022-09-15T02:07:49.241Z,17.96
2022-09-15T02:09:07.706Z,17.93
2022-09-15T02:10:20.432Z,17.96
2022-09-15T02:11:28.332Z,17.96
2022-09-15T02:12:50.997Z,17.93
2022-09-15T02:14:36.446Z,17.89
2022-09-15T02:15:52.081Z,17.90
2022-09-15T02:16:55.312Z,17.85
2022-09-15T02:17:59.390Z,17.83
2022-09-15T02:19:17.933Z,17.87
2022-09-15T02:20:50.157Z,17.85
2022-09-15T02:22:28.044Z,17.81
2022-09-15T02:23:37.902Z,17.80
2022-09-15T02:24:50.286Z,17.83
2022-09-15T02:26:06.749Z,17.81
2022-09-15T02:27:16.313Z,17.79
2022-09-15T02:28:26.370Z,17.79
2022-09-15T02:29:34.015Z,17.80
2022-09-15T02:30:42.164Z,17.85
2022-09-15T02:31:46.805Z,17.85
2022-09-15T02:32:56.413Z,17.80
2022-09-15T02:34:06.046Z,17.80
2022-09-15T02:35:10.166Z,17.77
2022-09-15T02:36:15.924Z,17.78
2022-09-15T02:37:23.102Z,17.81
2022-09-15T02:38:29.824Z,17.89
2022-09-15T02:39:37.348Z,17.84
2022-09-15T02:40:43.478Z,17.79
2022-09-15T02:41:49.017Z,17.83
2022-09-15T02:42:56.038Z,17.83
2022-09-15T02:43:58.916Z,17.80
2022-09-15T02:45:02.492Z,17.80
2022-09-15T02:46:10.380Z,17.79
2022-09-15T02:47:13.704Z,17.79
2022-09-15T02:48:16.824Z,17.79
2022-09-15T02:49:20.354Z,17.77
2022-09-15T02:50:28.014Z,17.76
2022-09-15T02:51:31.446Z,17.77
2022-09-15T02:52:38.384Z,17.81
2022-09-15T02:53:43.213Z,17.81
2022-09-15T02:54:46.471Z,17.77
2022-09-15T02:55:49.738Z,17.76
2022-09-15T02:56:52.672Z,17.74
2022-09-15T02:57:57.496Z,17.75
2022-09-15T02:59:01.784Z,17.76
2022-09-15T03:00:17.045Z,17.72
2022-09-15T03:01:20.089Z,17.74
2022-09-15T03:02:23.725Z,17.78
2022-09-15T03:03:26.840Z,17.75
2022-09-15T03:04:31.350Z,17.72
2022-09-15T03:05:37.629Z,17.69
2022-09-15T03:06:42.233Z,17.82
2022-09-15T03:07:45.696Z,17.76
2022-09-15T03:08:52.460Z,17.74
2022-09-15T03:09:56.564Z,17.74
2022-09-15T03:10:59.475Z,17.71
2022-09-15T03:12:04.352Z,17.65
2022-09-15T03:13:09.129Z,17.62
2022-09-15T03:14:12.202Z,17.63
2022-09-15T03:15:19.738Z,17.60
2022-09-15T03:16:23.082Z,17.58
2022-09-15T03:17:25.951Z,17.56
2022-09-15T03:18:28.964Z,17.57
2022-09-15T03:19:32.454Z,17.56
2022-09-15T03:20:35.257Z,17.51
2022-09-15T03:21:38.818Z,17.53
2022-09-15T03:22:45.547Z,17.52
2022-09-15T03:23:48.663Z,17.50
2022-09-15T03:24:52.051Z,17.50
2022-09-15T03:25:54.751Z,17.57
2022-09-15T03:26:57.685Z,17.56
2022-09-15T03:28:00.499Z,17.53
2022-09-15T03:29:03.826Z,17.51
2022-09-15T03:30:09.384Z,17.50
2022-09-15T03:31:13.831Z,17.53
2022-09-15T03:33:26.083Z,17.54
2022-09-15T03:34:29.316Z,17.53
2022-09-15T03:35:32.130Z,17.52
2022-09-15T03:36:35.175Z,17.51
2022-09-15T03:37:42.238Z,17.52
2022-09-15T03:38:45.423Z,17.50
2022-09-15T03:39:49.216Z,17.51
2022-09-15T03:41:03.631Z,17.50
2022-09-15T03:42:06.706Z,17.50
2022-09-15T03:43:18.012Z,17.47
2022-09-15T03:44:21.950Z,17.49
2022-09-15T03:45:25.353Z,17.48
2022-09-15T03:46:28.833Z,17.48
2022-09-15T03:47:32.855Z,17.50
2022-09-15T03:48:36.445Z,17.48
2022-09-15T03:49:39.393Z,17.45
2022-09-15T03:50:42.515Z,17.45
2022-09-15T03:51:45.630Z,17.49
2022-09-15T03:52:48.759Z,17.48
2022-09-15T03:53:52.473Z,17.46
2022-09-15T03:54:55.833Z,17.47
2022-09-15T03:56:11.765Z,17.50
2022-09-15T03:57:14.998Z,17.51
2022-09-15T03:58:19.110Z,17.56
2022-09-15T03:59:23.459Z,17.63
2022-09-15T04:00:26.771Z,17.61
2022-09-15T04:01:30.735Z,17.57
2022-09-15T04:02:33.993Z,17.64
2022-09-15T04:03:43.257Z,17.71
2022-09-15T04:04:49.525Z,17.76
2022-09-15T04:05:53.215Z,17.85
2022-09-15T04:06:56.304Z,17.88
2022-09-15T04:07:59.260Z,17.92
2022-09-15T04:09:02.587Z,17.90
2022-09-15T04:10:10.236Z,17.93
2022-09-15T04:11:14.231Z,17.93
2022-09-15T04:12:17.592Z,18.02
2022-09-15T04:13:28.613Z,17.97
2022-09-15T04:14:32.287Z,17.97
2022-09-15T04:15:35.103Z,17.96
2022-09-15T04:16:38.189Z,17.94
2022-09-15T04:17:41.328Z,17.91
2022-09-15T04:18:45.109Z,17.91
2022-09-15T04:19:47.999Z,17.90
2022-09-15T04:20:51.283Z,17.86
2022-09-15T04:21:54.428Z,17.84
2022-09-15T04:22:58.700Z,17.83
2022-09-15T04:24:05.337Z,17.82
2022-09-15T04:25:09.497Z,17.80
2022-09-15T04:26:24.736Z,17.77
2022-09-15T04:27:30.281Z,17.78
2022-09-15T04:28:37.532Z,17.78
2022-09-15T04:29:40.610Z,17.79
2022-09-15T04:30:44.172Z,17.76
2022-09-15T04:31:47.334Z,17.75
2022-09-15T04:32:51.865Z,17.74
2022-09-15T04:33:55.896Z,17.72
2022-09-15T04:34:59.012Z,17.71
2022-09-15T04:36:06.831Z,17.70
2022-09-15T04:37:14.255Z,17.72
2022-09-15T04:38:17.402Z,17.71
2022-09-15T04:39:20.430Z,17.71
2022-09-15T04:40:23.599Z,17.69
2022-09-15T04:41:27.616Z,17.69
2022-09-15T04:42:31.653Z,17.72
2022-09-15T04:43:35.579Z,17.75
2022-09-15T04:44:38.805Z,17.83
2022-09-15T04:45:41.716Z,17.89
2022-09-15T04:46:44.825Z,17.85
2022-09-15T04:47:48.742Z,17.82
2022-09-15T04:48:52.058Z,17.84
2022-09-15T04:49:55.021Z,17.85
2022-09-15T04:51:07.162Z,17.86
2022-09-15T04:52:10.181Z,17.90
2022-09-15T04:53:13.793Z,17.92
2022-09-15T04:54:16.780Z,17.92
2022-09-15T04:55:20.087Z,17.93
2022-09-15T04:56:25.958Z,17.95
2022-09-15T04:57:29.193Z,17.94
2022-09-15T04:58:39.986Z,18.00
2022-09-15T04:59:43.014Z,18.00
2022-09-15T05:00:46.036Z,17.99
2022-09-15T05:01:49.426Z,17.99
2022-09-15T05:02:52.372Z,18.00
2022-09-15T05:03:56.060Z,18.03
2022-09-15T05:04:59.384Z,18.06
2022-09-15T05:06:02.312Z,18.08
2022-09-15T05:07:05.327Z,18.08
2022-09-15T05:08:08.783Z,18.09
2022-09-15T05:09:15.061Z,18.13
2022-09-15T05:10:19.365Z,18.18
2022-09-15T05:11:23.133Z,18.16
2022-09-15T05:12:26.136Z,18.15
2022-09-15T05:13:29.759Z,18.16
2022-09-15T05:14:32.793Z,18.17
2022-09-15T05:15:35.968Z,18.17
2022-09-15T05:16:40.450Z,18.19
2022-09-15T05:17:43.294Z,18.22
2022-09-15T05:18:48.010Z,18.20
2022-09-15T05:19:51.112Z,18.25
2022-09-15T05:20:59.410Z,18.26
2022-09-15T05:22:06.289Z,18.28
2022-09-15T05:23:10.733Z,18.30
2022-09-15T05:24:13.785Z,18.31
2022-09-15T05:25:16.841Z,18.31
2022-09-15T05:26:23.613Z,18.35
2022-09-15T05:27:26.326Z,18.36
2022-09-15T05:28:29.492Z,18.39
2022-09-15T05:29:32.350Z,18.37
2022-09-15T05:30:43.603Z,18.39
2022-09-15T05:31:47.036Z,18.44
2022-09-15T05:32:50.239Z,18.47
2022-09-15T05:33:54.499Z,18.44
2022-09-15T05:34:58.222Z,18.41
2022-09-15T05:36:01.339Z,18.43
2022-09-15T05:37:05.507Z,18.58
2022-09-15T05:38:08.341Z,18.54
2022-09-15T05:39:11.573Z,18.46
2022-09-15T05:40:15.460Z,18.44
2022-09-15T05:41:19.264Z,18.48
2022-09-15T05:42:22.157Z,18.50
2022-09-15T05:43:25.416Z,18.49
2022-09-15T05:44:28.459Z,18.50
2022-09-15T05:45:31.431Z,18.50
2022-09-15T05:46:35.012Z,18.50
2022-09-15T05:47:38.360Z,18.52
2022-09-15T05:48:41.682Z,18.56
2022-09-15T05:49:44.661Z,18.59
2022-09-15T05:50:51.703Z,18.57
2022-09-15T05:51:54.500Z,18.59
2022-09-15T05:52:57.812Z,18.57
2022-09-15T05:54:00.851Z,18.56
2022-09-15T05:55:03.803Z,18.67
2022-09-15T05:56:17.557Z,18.68
2022-09-15T05:57:20.800Z,18.65
2022-09-15T05:58:24.997Z,18.64
2022-09-15T05:59:28.787Z,18.63
2022-09-15T06:00:32.024Z,18.66
2022-09-15T06:01:35.682Z,18.71
2022-09-15T06:02:39.054Z,18.73
2022-09-15T06:03:42.574Z,18.75
2022-09-15T06:04:49.428Z,18.76
2022-09-15T06:05:59.817Z,18.77
2022-09-15T06:07:03.164Z,18.81
2022-09-15T06:08:07.132Z,18.83
2022-09-15T06:09:10.046Z,18.84
2022-09-15T06:10:13.154Z,18.89
2022-09-15T06:11:18.807Z,18.90
2022-09-15T06:12:22.182Z,18.92
2022-09-15T06:13:25.242Z,18.99
2022-09-15T06:14:28.472Z,19.00
2022-09-15T06:15:32.188Z,19.05
2022-09-15T06:16:35.928Z,19.05
2022-09-15T06:17:39.203Z,19.08
2022-09-15T06:18:42.835Z,19.08
2022-09-15T06:19:46.023Z,19.07
2022-09-15T06:20:49.012Z,19.07
2022-09-15T06:21:55.476Z,19.06
2022-09-15T06:22:59.297Z,19.09
2022-09-15T06:24:05.358Z,19.09
2022-09-15T06:25:08.898Z,19.10
2022-09-15T06:26:17.198Z,19.13
2022-09-15T06:27:20.814Z,19.16
2022-09-15T06:28:24.703Z,19.21
2022-09-15T06:29:29.291Z,19.21
2022-09-15T06:30:32.866Z,19.25
2022-09-15T06:31:36.298Z,19.37
2022-09-15T06:32:39.453Z,19.38
2022-09-15T06:35:08.444Z,19.42
2022-09-15T06:36:13.365Z,19.43
2022-09-15T06:37:16.637Z,19.45
2022-09-15T06:38:19.887Z,19.50
2022-09-15T06:39:23.262Z,19.62
2022-09-15T06:40:26.348Z,19.55
2022-09-15T06:41:47.089Z,19.50
2022-09-15T06:42:56.029Z,19.52
2022-09-15T06:43:59.855Z,19.48
2022-09-15T06:45:04.702Z,19.49
2022-09-15T06:46:11.005Z,19.55
2022-09-15T06:47:15.656Z,19.52
2022-09-15T06:48:24.825Z,19.48
2022-09-15T06:49:32.711Z,19.50
2022-09-15T06:50:35.520Z,19.52
2022-09-15T06:51:44.302Z,19.46
2022-09-15T06:52:47.206Z,19.48
2022-09-15T06:53:50.558Z,19.49
2022-09-15T06:54:57.335Z,19.49
2022-09-15T06:56:09.195Z,19.49
2022-09-15T06:57:12.505Z,19.53
2022-09-15T06:58:15.280Z,19.49
2022-09-15T06:59:18.495Z,19.50
2022-09-15T07:00:21.845Z,19.49
2022-09-15T07:01:27.309Z,19.50
2022-09-15T07:02:30.284Z,19.49
2022-09-15T07:03:33.513Z,19.52
2022-09-15T07:04:39.723Z,19.52
2022-09-15T07:05:44.492Z,19.50
2022-09-15T07:06:48.194Z,19.53
2022-09-15T07:07:51.261Z,19.56
2022-09-15T07:08:54.193Z,19.59
2022-09-15T07:09:57.115Z,19.61
2022-09-15T07:11:01.076Z,19.60
2022-09-15T07:12:04.642Z,19.61
2022-09-15T07:13:07.841Z,19.63
2022-09-15T07:14:14.485Z,19.65
2022-09-15T07:15:17.566Z,19.66
2022-09-15T07:16:21.847Z,19.70
2022-09-15T07:17:26.675Z,19.69
2022-09-15T07:18:31.245Z,19.69
2022-09-15T07:19:34.298Z,19.70
2022-09-15T07:20:42.557Z,19.71
2022-09-15T07:21:45.360Z,19.75
2022-09-15T07:22:51.424Z,19.80
2022-09-15T07:23:57.889Z,19.82
2022-09-15T07:25:00.651Z,19.86
2022-09-15T07:26:24.035Z,19.91
2022-09-15T07:27:31.897Z,19.94
2022-09-15T07:28:36.515Z,20.02
2022-09-15T07:29:39.738Z,20.06
2022-09-15T07:30:43.723Z,20.11
2022-09-15T07:31:47.091Z,20.22
2022-09-15T07:32:50.130Z,20.22
2022-09-15T07:33:53.495Z,20.27
2022-09-15T07:34:58.467Z,20.30
2022-09-15T07:36:04.024Z,20.32
2022-09-15T07:37:07.675Z,20.31
2022-09-15T07:38:11.002Z,20.35
2022-09-15T07:39:14.016Z,20.40
2022-09-15T07:40:17.296Z,20.51
2022-09-15T07:41:23.148Z,20.48
2022-09-15T07:42:26.083Z,20.48
2022-09-15T07:43:34.281Z,20.45
2022-09-15T07:44:37.242Z,20.43
2022-09-15T07:45:40.828Z,20.45
2022-09-15T07:46:43.658Z,20.48
2022-09-15T07:47:46.791Z,20.58
2022-09-15T07:48:52.293Z,20.67
2022-09-15T07:49:58.486Z,20.73
2022-09-15T07:51:01.557Z,20.79
2022-09-15T07:52:04.464Z,20.82
2022-09-15T07:53:07.855Z,20.78
2022-09-15T07:54:11.174Z,20.75
2022-09-15T07:55:14.258Z,20.73
2022-09-15T07:56:18.763Z,20.73
2022-09-15T07:57:21.992Z,20.82
2022-09-15T07:58:25.661Z,20.98
2022-09-15T07:59:28.747Z,21.03
2022-09-15T08:00:32.077Z,21.16
2022-09-15T08:01:35.367Z,21.24
2022-09-15T08:02:38.155Z,21.32
2022-09-15T08:03:42.989Z,21.43
2022-09-15T08:04:45.759Z,21.58
2022-09-15T08:05:48.735Z,21.73
2022-09-15T08:06:52.963Z,21.74
2022-09-15T08:07:56.399Z,21.70
2022-09-15T08:09:00.979Z,21.67
2022-09-15T08:10:04.316Z,21.69
2022-09-15T08:11:09.476Z,21.69
2022-09-15T08:12:12.494Z,21.68
2022-09-15T08:13:15.320Z,21.69
2022-09-15T08:14:18.407Z,21.71
2022-09-15T08:15:21.531Z,21.79
2022-09-15T08:16:24.987Z,21.86
2022-09-15T08:17:31.448Z,21.88
2022-09-15T08:18:35.097Z,21.87
2022-09-15T08:19:38.044Z,21.99
2022-09-15T08:20:44.953Z,22.11
2022-09-15T08:21:48.009Z,22.22
2022-09-15T08:22:51.450Z,22.26
2022-09-15T08:24:01.573Z,22.23
2022-09-15T08:25:04.666Z,22.21
2022-09-15T08:26:13.860Z,22.25
2022-09-15T08:27:17.699Z,22.21
2022-09-15T08:28:21.683Z,22.24
2022-09-15T08:29:25.242Z,22.21
2022-09-15T08:30:28.277Z,22.20
2022-09-15T08:31:31.199Z,22.21
2022-09-15T08:32:34.345Z,22.23
2022-09-15T08:33:41.828Z,22.21
2022-09-15T08:34:47.713Z,22.28
2022-09-15T08:35:50.659Z,22.38
2022-09-15T08:36:53.513Z,22.43
2022-09-15T08:37:56.452Z,22.51
2022-09-15T08:38:59.998Z,22.64
2022-09-15T08:40:05.436Z,22.68
2022-09-15T08:41:24.179Z,22.71
2022-09-15T08:42:29.319Z,22.73
2022-09-15T08:43:51.654Z,22.89
2022-09-15T08:45:08.385Z,22.92
2022-09-15T08:46:18.466Z,23.00
2022-09-15T08:47:28.660Z,23.06
2022-09-15T08:48:40.435Z,23.13
2022-09-15T08:50:01.146Z,23.23
2022-09-15T08:51:12.110Z,23.27
2022-09-15T08:52:32.173Z,23.28
2022-09-15T08:53:43.135Z,23.43
2022-09-15T08:54:46.133Z,23.55
2022-09-15T08:55:53.021Z,23.56
2022-09-15T08:56:57.776Z,23.59
2022-09-15T08:58:00.636Z,23.64
2022-09-15T08:59:03.715Z,23.72
2022-09-15T09:00:13.843Z,23.87
2022-09-15T09:01:31.885Z,24.01
2022-09-15T09:03:01.838Z,24.09
2022-09-15T09:04:24.503Z,24.23
2022-09-15T09:06:00.742Z,24.34
2022-09-15T09:07:19.023Z,24.38
2022-09-15T09:09:03.022Z,24.37
2022-09-15T09:10:38.716Z,24.46
2022-09-15T09:12:09.306Z,24.47
2022-09-15T09:13:36.388Z,24.50
2022-09-15T09:14:45.055Z,24.54
2022-09-15T09:16:10.708Z,24.52
2022-09-15T09:17:34.988Z,24.66
2022-09-15T09:18:59.798Z,24.74
2022-09-15T09:20:39.620Z,24.65
2022-09-15T09:21:51.741Z,24.51
2022-09-15T09:22:58.306Z,24.37
2022-09-15T09:24:13.423Z,24.28
2022-09-15T09:25:27.211Z,24.11
2022-09-15T09:26:33.910Z,24.00
2022-09-15T09:27:36.829Z,23.90
2022-09-15T09:28:46.627Z,23.86
2022-09-15T09:29:55.074Z,23.80
2022-09-15T09:31:08.544Z,23.79
2022-09-15T09:32:24.803Z,23.81
2022-09-15T09:33:41.791Z,23.82
2022-09-15T09:35:14.687Z,23.96
2022-09-15T09:36:18.078Z,23.95
2022-09-15T09:37:21.255Z,24.00
2022-09-15T09:38:31.547Z,24.05
2022-09-15T09:39:34.762Z,24.04
2022-09-15T09:40:41.314Z,24.08
2022-09-15T09:41:45.234Z,24.09
2022-09-15T09:42:49.130Z,24.14
2022-09-15T09:43:55.370Z,24.15
2022-09-15T09:44:58.632Z,24.19
2022-09-15T09:46:02.728Z,24.22
2022-09-15T09:47:05.595Z,24.25
2022-09-15T09:48:35.229Z,24.37
2022-09-15T09:49:48.308Z,24.42
2022-09-15T09:50:51.671Z,24.45
2022-09-15T09:52:02.472Z,24.52
2022-09-15T09:53:33.860Z,24.52
2022-09-15T09:54:38.523Z,24.55
2022-09-15T09:55:41.907Z,24.62
2022-09-15T09:56:45.716Z,24.59
2022-09-15T09:57:48.533Z,24.57
2022-09-15T09:58:52.454Z,24.54
2022-09-15T09:59:57.318Z,24.54
2022-09-15T10:01:10.730Z,24.51
2022-09-15T10:02:19.542Z,24.51
2022-09-15T10:03:32.091Z,24.48
2022-09-15T10:04:35.828Z,24.42
2022-09-15T10:05:38.997Z,24.44
2022-09-15T10:06:42.754Z,24.43
2022-09-15T10:07:46.600Z,24.43
2022-09-15T10:09:05.443Z,24.38
2022-09-15T10:10:23.255Z,24.32
2022-09-15T10:11:52.087Z,24.30
2022-09-15T10:12:59.914Z,24.36
2022-09-15T10:14:02.977Z,24.49
2022-09-15T10:15:19.769Z,24.51
2022-09-15T10:16:23.175Z,24.45
2022-09-15T10:17:41.615Z,24.45
2022-09-15T10:18:45.161Z,24.52
2022-09-15T10:19:54.440Z,24.60
2022-09-15T10:20:57.856Z,24.68
2022-09-15T10:22:03.065Z,24.74
2022-09-15T10:23:24.776Z,24.77
2022-09-15T10:24:27.827Z,24.86
2022-09-15T10:25:49.654Z,24.87
2022-09-15T10:27:27.919Z,24.94
2022-09-15T10:28:30.897Z,25.00
2022-09-15T10:29:42.786Z,25.02
2022-09-15T10:31:07.091Z,25.02
2022-09-15T10:32:18.353Z,24.88
2022-09-15T10:33:29.670Z,24.81
2022-09-15T10:34:32.732Z,24.79
2022-09-15T10:35:44.404Z,24.79
2022-09-15T10:36:47.915Z,24.78
2022-09-15T10:38:03.776Z,24.83
2022-09-15T10:39:13.079Z,24.84
2022-09-15T10:40:40.602Z,24.86
2022-09-15T10:42:04.697Z,24.95
2022-09-15T10:43:19.719Z,24.99
2022-09-15T10:44:44.726Z,25.05
2022-09-15T10:46:10.996Z,25.12
2022-09-15T10:47:16.970Z,25.03
2022-09-15T10:48:41.240Z,25.00
2022-09-15T10:50:18.784Z,24.98
2022-09-15T10:51:31.730Z,25.05
2022-09-15T10:52:49.643Z,25.02
2022-09-15T10:54:11.084Z,25.10
2022-09-15T10:55:52.940Z,25.27
2022-09-15T10:58:49.222Z,25.40
2022-09-15T11:00:02.340Z,25.35
2022-09-15T11:01:30.318Z,25.43
2022-09-15T11:02:59.815Z,25.33
2022-09-15T11:04:15.580Z,25.44
2022-09-15T11:05:47.036Z,25.50
2022-09-15T11:07:08.379Z,25.61
2022-09-15T11:08:35.964Z,25.61
2022-09-15T11:09:54.030Z,25.54
2022-09-15T11:11:16.666Z,25.42
2022-09-15T11:12:47.436Z,25.19
2022-09-15T11:14:21.836Z,25.17
2022-09-15T11:15:41.771Z,25.19
2022-09-15T11:17:06.206Z,25.09
2022-09-15T11:18:36.830Z,25.13
2022-09-15T11:20:04.841Z,24.93
2022-09-15T11:21:20.022Z,24.91
2022-09-15T11:22:36.455Z,24.88
2022-09-15T11:24:29.595Z,24.78
2022-09-15T11:25:36.784Z,24.60
2022-09-15T11:26:42.961Z,24.55
2022-09-15T11:28:17.479Z,24.56
2022-09-15T11:29:28.264Z,24.49
2022-09-15T11:30:47.656Z,24.40
2022-09-15T11:33:23.053Z,24.32
2022-09-15T11:34:44.106Z,24.30
2022-09-15T11:36:11.151Z,24.29
2022-09-15T11:37:44.829Z,24.29
2022-09-15T11:38:57.863Z,24.27
2022-09-15T11:40:14.938Z,24.13
2022-09-15T11:41:40.937Z,24.06
2022-09-15T11:42:56.480Z,24.12
2022-09-15T11:44:41.971Z,24.19
2022-09-15T11:45:51.095Z,24.17
2022-09-15T11:47:15.808Z,24.08
2022-09-15T11:48:28.113Z,24.10
2022-09-15T11:49:57.241Z,24.19
2022-09-15T11:51:03.090Z,24.23
2022-09-15T11:52:48.212Z,24.34
2022-09-15T11:54:05.521Z,24.44
2022-09-15T11:55:14.064Z,24.62
2022-09-15T11:56:44.369Z,24.67
2022-09-15T11:58:22.364Z,24.72
2022-09-15T11:59:29.467Z,24.67
2022-09-15T12:00:35.418Z,24.64
2022-09-15T12:02:17.268Z,24.74
2022-09-15T12:03:29.193Z,24.77
2022-09-15T12:04:37.472Z,24.55
2022-09-15T12:05:49.342Z,24.46
2022-09-15T12:07:14.653Z,24.36
2022-09-15T12:08:39.610Z,24.28
2022-09-15T12:09:43.045Z,24.12
2022-09-15T12:10:52.663Z,24.05
2022-09-15T12:12:08.658Z,23.99
2022-09-15T12:13:18.534Z,23.94
2022-09-15T12:14:36.092Z,23.95
2022-09-15T12:15:38.945Z,24.00
2022-09-15T12:16:42.484Z,23.87
2022-09-15T12:17:52.597Z,23.83
2022-09-15T12:19:12.083Z,23.75
2022-09-15T12:20:33.601Z,23.58
2022-09-15T12:21:54.373Z,23.51
2022-09-15T12:23:32.985Z,23.53
2022-09-15T12:24:46.218Z,23.36
2022-09-15T12:26:14.920Z,23.21
2022-09-15T12:27:20.588Z,23.17
2022-09-15T12:28:24.132Z,23.12
2022-09-15T12:29:27.023Z,23.08
2022-09-15T12:30:41.762Z,23.03
2022-09-15T12:31:47.236Z,22.95
2022-09-15T12:32:50.265Z,22.84
2022-09-15T12:33:57.587Z,22.78
2022-09-15T12:35:18.599Z,22.75
2022-09-15T12:36:41.499Z,22.69
2022-09-15T12:37:57.540Z,22.65
2022-09-15T12:39:25.731Z,22.51
2022-09-15T12:40:41.880Z,22.37
2022-09-15T12:41:56.077Z,22.28
2022-09-15T12:43:07.483Z,22.16
2022-09-15T12:44:35.091Z,22.07
2022-09-15T12:45:39.522Z,21.91
2022-09-15T12:46:51.571Z,21.95
2022-09-15T12:48:21.510Z,21.96
2022-09-15T12:49:31.377Z,21.92
2022-09-15T12:50:41.263Z,21.69
2022-09-15T12:51:50.036Z,21.58
2022-09-15T12:53:14.694Z,21.51
2022-09-15T12:54:29.881Z,21.41
2022-09-15T12:55:36.815Z,21.25
2022-09-15T12:56:39.987Z,21.20
2022-09-15T12:57:42.885Z,21.05
2022-09-15T12:58:48.495Z,20.85
2022-09-15T13:00:27.653Z,20.63
2022-09-15T13:01:45.737Z,20.36
2022-09-15T13:02:51.188Z,20.11
2022-09-15T13:03:55.444Z,19.92
2022-09-15T13:04:58.489Z,19.56
2022-09-15T13:06:10.519Z,19.34
2022-09-15T13:07:16.283Z,19.20
2022-09-15T13:08:22.994Z,19.10
2022-09-15T13:09:28.447Z,19.00
2022-09-15T13:10:36.041Z,19.01
2022-09-15T13:11:42.701Z,19.12
2022-09-15T13:12:54.692Z,18.94
2022-09-15T13:14:00.200Z,18.77
2022-09-15T13:15:13.444Z,18.72
2022-09-15T13:17:41.254Z,18.73
2022-09-15T13:18:46.330Z,18.73
2022-09-15T13:19:53.354Z,18.67
2022-09-15T13:21:04.958Z,18.62
2022-09-15T13:22:27.552Z,18.58
2022-09-15T13:23:37.054Z,18.51
2022-09-15T13:25:02.331Z,18.48
2022-09-15T13:26:09.856Z,18.47
2022-09-15T13:27:15.399Z,18.44
2022-09-15T13:28:20.402Z,18.46
2022-09-15T13:29:25.937Z,18.46
2022-09-15T13:30:41.164Z,18.46
2022-09-15T13:32:10.241Z,18.47
2022-09-15T13:35:41.376Z,18.49
2022-09-15T13:38:46.731Z,18.28
2022-09-15T13:40:27.587Z,18.16
2022-09-15T13:42:01.558Z,18.24
2022-09-15T13:43:12.928Z,18.26
2022-09-15T13:44:37.153Z,18.27
2022-09-15T13:45:53.151Z,18.24
2022-09-15T13:47:04.644Z,18.24
2022-09-15T13:48:47.959Z,18.15
2022-09-15T13:49:59.877Z,18.15
2022-09-15T13:51:13.360Z,18.14
2022-09-15T13:52:33.273Z,18.08
2022-09-15T13:53:52.688Z,18.05
2022-09-15T13:55:10.348Z,18.07
2022-09-15T13:56:32.986Z,18.04
2022-09-15T13:59:13.378Z,18.05
2022-09-15T14:00:23.218Z,18.06
2022-09-15T14:01:29.720Z,18.04
2022-09-15T14:02:32.679Z,18.04
2022-09-15T14:03:39.519Z,18.02
2022-09-15T14:04:42.261Z,18.06
2022-09-15T14:05:45.740Z,18.07
2022-09-15T14:06:52.078Z,18.07
2022-09-15T14:08:04.479Z,18.08
2022-09-15T14:09:26.983Z,18.08
2022-09-15T14:10:44.397Z,18.06
2022-09-15T14:11:53.798Z,18.05
2022-09-15T14:13:00.536Z,18.06
2022-09-15T14:14:10.604Z,18.10
2022-09-15T14:15:21.804Z,18.13
2022-09-15T14:16:36.356Z,18.11
2022-09-15T14:17:45.659Z,18.05
2022-09-15T14:18:48.510Z,17.98
2022-09-15T14:19:56.920Z,18.01
2022-09-15T14:21:05.094Z,18.04
2022-09-15T14:22:30.866Z,18.05
2022-09-15T14:23:33.896Z,18.05
2022-09-15T14:24:40.609Z,18.03
2022-09-15T14:25:46.213Z,18.03
2022-09-15T14:26:49.168Z,18.01
2022-09-15T14:27:55.547Z,18.01
2022-09-15T14:29:04.618Z,18.00
2022-09-15T14:30:17.454Z,17.96
2022-09-15T14:31:43.960Z,17.94
2022-09-15T14:32:52.536Z,17.93
2022-09-15T14:33:55.668Z,18.02
2022-09-15T14:35:03.522Z,17.99
2022-09-15T14:36:23.180Z,17.97
2022-09-15T14:37:28.981Z,17.94
2022-09-15T14:38:34.061Z,18.00
2022-09-15T14:39:37.933Z,18.03
2022-09-15T14:40:41.601Z,18.06
2022-09-15T14:41:45.073Z,18.08
2022-09-15T14:42:47.875Z,18.00
2022-09-15T14:43:50.817Z,17.98
2022-09-15T14:46:18.718Z,17.96
2022-09-15T14:47:25.852Z,17.95
2022-09-15T14:48:30.330Z,17.96
2022-09-15T14:49:37.799Z,17.94
2022-09-15T14:50:41.512Z,17.93
2022-09-15T14:51:46.482Z,17.93
2022-09-15T14:53:21.202Z,17.90
2022-09-15T14:54:29.577Z,17.83
2022-09-15T14:55:38.329Z,17.84
2022-09-15T14:56:43.429Z,17.92
2022-09-15T14:58:01.792Z,17.97
2022-09-15T14:59:27.887Z,18.02
2022-09-15T15:00:37.782Z,18.02
2022-09-15T15:01:46.610Z,18.07
2022-09-15T15:02:59.589Z,18.01
2022-09-15T15:04:31.542Z,18.04
2022-09-15T15:05:41.587Z,18.01
2022-09-15T15:07:16.097Z,17.96
2022-09-15T15:08:47.374Z,17.96
2022-09-15T15:10:02.870Z,17.93
2022-09-15T15:11:08.749Z,17.86
2022-09-15T15:12:35.055Z,17.83
2022-09-15T15:13:44.460Z,17.82